createdAt,value
2022-08-07T00:01:43.345Z,74.22
2022-08-07T00:04:30.610Z,73.07
2022-08-07T00:07:40.530Z,73.75
2022-08-07T00:10:47.994Z,76.00
2022-08-07T00:14:00.145Z,72.03
2022-08-07T00:17:06.655Z,73.22
2022-08-07T00:20:10.179Z,73.28
2022-08-07T00:23:21.119Z,72.50
2022-08-07T00:26:49.466Z,74.35
2022-08-07T00:29:47.258Z,71.35
2022-08-07T00:32:50.549Z,73.47
2022-08-07T00:35:55.895Z,68.65
2022-08-07T00:38:59.163Z,77.10
2022-08-07T00:42:05.219Z,71.37
2022-08-07T00:45:16.142Z,70.12
2022-08-07T00:48:19.574Z,67.10
2022-08-07T00:51:57.403Z,71.32
2022-08-07T00:54:57.111Z,77.07
2022-08-07T00:58:00.138Z,71.82
2022-08-07T01:01:03.231Z,68.87
2022-08-07T01:04:07.579Z,76.47
2022-08-07T01:07:12.671Z,73.28
2022-08-07T01:10:18.387Z,78.20
2022-08-07T01:13:22.074Z,73.75
2022-08-07T01:16:30.230Z,69.25
2022-08-07T01:19:34.655Z,78.05
2022-08-07T01:22:54.159Z,70.95
2022-08-07T01:26:11.998Z,70.03
2022-08-07T01:29:17.316Z,62.47
2022-08-07T01:32:22.466Z,72.12
2022-08-07T01:35:52.945Z,75.82
2022-08-07T01:38:53.119Z,70.57
2022-08-07T01:42:37.174Z,75.53
2022-08-07T01:45:23.064Z,73.53
2022-08-07T01:48:46.688Z,67.72
2022-08-07T01:52:03.677Z,79.97
2022-08-07T01:55:22.280Z,75.80
2022-08-07T01:58:33.484Z,70.78
2022-08-07T02:02:04.298Z,74.75
2022-08-07T02:05:47.555Z,72.00
2022-08-07T02:08:54.232Z,73.12
2022-08-07T02:12:17.740Z,75.30
2022-08-07T02:15:23.652Z,71.40
2022-08-07T02:18:33.011Z,78.90
2022-08-07T02:21:55.232Z,73.97
2022-08-07T02:25:00.847Z,75.68
2022-08-07T02:28:06.918Z,77.97
2022-08-07T02:31:28.061Z,74.00
2022-08-07T02:34:34.129Z,71.37
2022-08-07T02:37:44.166Z,79.43
2022-08-07T02:40:50.487Z,78.40
2022-08-07T02:43:59.435Z,77.53
2022-08-07T02:47:04.421Z,69.93
2022-08-07T02:50:08.088Z,71.93
2022-08-07T02:53:18.083Z,70.40
2022-08-07T02:56:26.044Z,81.07
2022-08-07T02:59:32.410Z,80.78
2022-08-07T03:02:37.623Z,67.62
2022-08-07T03:05:57.231Z,70.40
2022-08-07T03:09:06.037Z,71.65
2022-08-07T03:12:16.206Z,70.28
2022-08-07T03:15:30.314Z,64.97
2022-08-07T03:18:50.086Z,77.80
2022-08-07T03:21:53.194Z,79.78
2022-08-07T03:24:57.356Z,74.28
2022-08-07T03:28:09.382Z,70.87
2022-08-07T03:31:42.845Z,70.35
2022-08-07T03:35:01.158Z,74.50
2022-08-07T03:38:17.215Z,76.70
2022-08-07T03:41:42.079Z,72.53
2022-08-07T03:44:53.419Z,75.12
2022-08-07T03:48:00.938Z,69.62
2022-08-07T03:51:05.408Z,75.47
2022-08-07T03:54:35.140Z,76.15
2022-08-07T03:58:08.859Z,74.97
2022-08-07T04:01:03.772Z,75.15
2022-08-07T04:04:17.226Z,81.05
2022-08-07T04:07:22.842Z,72.62
2022-08-07T04:10:26.561Z,74.15
2022-08-07T04:14:10.745Z,80.43
2022-08-07T04:16:59.011Z,72.68
2022-08-07T04:20:11.293Z,73.70
2022-08-07T04:23:19.295Z,81.15
2022-08-07T04:26:23.108Z,79.97
2022-08-07T04:29:48.822Z,78.40
2022-08-07T04:32:58.154Z,80.38
2022-08-07T04:36:06.610Z,76.85
2022-08-07T04:39:10.544Z,81.37
2022-08-07T04:42:13.761Z,80.65
2022-08-07T04:45:22.408Z,80.55
2022-08-07T04:49:24.212Z,76.18
2022-08-07T04:52:34.166Z,80.55
2022-08-07T04:58:14.164Z,78.75
2022-08-07T05:00:11.956Z,80.53
2022-08-07T05:03:59.619Z,74.10
2022-08-07T05:07:20.609Z,77.28
2022-08-07T05:10:35.241Z,69.97
2022-08-07T05:14:53.336Z,70.80
2022-08-07T05:17:13.928Z,67.93
2022-08-07T05:20:50.266Z,70.53
2022-08-07T05:23:59.814Z,66.60
2022-08-07T05:27:08.453Z,58.45
2022-08-07T05:30:33.227Z,60.83
2022-08-07T05:33:38.765Z,52.50
2022-08-07T05:36:44.957Z,57.08
2022-08-07T05:40:14.320Z,52.80
2022-08-07T05:43:18.623Z,47.13
2022-08-07T05:46:23.142Z,52.33
2022-08-07T05:49:41.014Z,51.65
2022-08-07T05:52:44.171Z,50.97
2022-08-07T05:56:03.551Z,58.15
2022-08-07T05:59:17.429Z,57.85
2022-08-07T06:02:28.440Z,56.37
2022-08-07T06:05:34.404Z,55.92
2022-08-07T06:08:44.190Z,55.70
2022-08-07T06:11:50.180Z,56.40
2022-08-07T06:14:55.168Z,57.03
2022-08-07T06:18:07.203Z,59.90
2022-08-07T06:22:14.300Z,56.58
2022-08-07T06:24:52.733Z,54.38
2022-08-07T06:28:07.412Z,58.63
2022-08-07T06:31:11.656Z,56.95
2022-08-07T06:34:14.591Z,60.30
2022-08-07T06:37:20.679Z,58.63
2022-08-07T06:40:25.421Z,61.55
2022-08-07T06:43:39.255Z,60.10
2022-08-07T06:46:43.084Z,57.85
2022-08-07T06:49:58.545Z,63.45
2022-08-07T06:53:04.224Z,63.20
2022-08-07T06:56:15.526Z,62.03
2022-08-07T07:00:12.088Z,61.13
2022-08-07T07:02:54.613Z,61.08
2022-08-07T07:06:01.839Z,63.30
2022-08-07T07:09:16.649Z,58.33
2022-08-07T07:15:39.670Z,57.15
2022-08-07T07:18:50.209Z,67.03
2022-08-07T07:22:05.309Z,58.83
2022-08-07T07:26:35.524Z,60.97
2022-08-07T07:29:40.493Z,56.47
2022-08-07T07:32:28.711Z,59.55
2022-08-07T07:35:54.513Z,56.45
2022-08-07T07:39:00.461Z,62.00
2022-08-07T07:42:12.945Z,47.10
2022-08-07T07:45:19.172Z,53.33
2022-08-07T07:48:35.948Z,52.50
2022-08-07T07:51:57.516Z,49.95
2022-08-07T07:55:04.224Z,48.08
2022-08-07T07:58:07.519Z,48.17
2022-08-07T08:02:01.888Z,45.50
2022-08-07T08:04:43.540Z,44.42
2022-08-07T08:07:59.523Z,46.80
2022-08-07T08:11:16.279Z,48.83
2022-08-07T08:14:36.369Z,46.80
2022-08-07T08:17:57.687Z,47.17
2022-08-07T08:21:02.661Z,42.22
2022-08-07T08:24:44.844Z,43.15
2022-08-07T08:27:56.361Z,44.83
2022-08-07T08:31:06.677Z,39.70
2022-08-07T08:34:12.447Z,46.00
2022-08-07T08:38:01.161Z,42.55
2022-08-07T08:41:11.910Z,47.70
2022-08-07T08:44:44.600Z,36.80
2022-08-07T08:48:28.479Z,36.60
2022-08-07T08:52:12.798Z,41.20
2022-08-07T08:55:54.350Z,43.25
2022-08-07T08:58:57.131Z,43.22
2022-08-07T09:02:34.673Z,41.47
2022-08-07T09:09:47.546Z,44.25
2022-08-07T09:13:15.002Z,51.40
2022-08-07T09:16:45.595Z,47.50
2022-08-07T09:19:59.621Z,40.92
2022-08-07T09:24:32.558Z,38.03
2022-08-07T09:27:24.856Z,47.47
2022-08-07T09:30:54.278Z,45.80
2022-08-07T09:33:58.277Z,48.17
2022-08-07T09:37:08.073Z,53.63
2022-08-07T09:40:26.530Z,51.37
2022-08-07T09:44:05.422Z,41.70
2022-08-07T09:47:57.765Z,43.80
2022-08-07T09:51:14.820Z,48.33
2022-08-07T09:54:45.474Z,52.70
2022-08-07T09:58:03.946Z,60.45
2022-08-07T10:01:52.088Z,46.37
2022-08-07T10:05:59.631Z,50.20
2022-08-07T10:09:23.833Z,52.75
2022-08-07T10:13:29.873Z,59.80
2022-08-07T10:17:16.830Z,58.75
2022-08-07T10:20:39.436Z,54.17
2022-08-07T10:24:05.881Z,65.70
2022-08-07T10:27:51.398Z,52.88
2022-08-07T10:30:57.748Z,54.20
2022-08-07T10:34:32.185Z,57.15
2022-08-07T10:38:09.609Z,57.95
2022-08-07T10:41:51.224Z,44.75
2022-08-07T10:45:16.923Z,50.22
2022-08-07T10:48:39.872Z,89.35
2022-08-07T10:52:01.605Z,52.78
2022-08-07T10:55:37.887Z,57.58
2022-08-07T10:59:21.641Z,53.85
2022-08-07T11:02:38.144Z,55.22
2022-08-07T11:06:21.826Z,51.88
2022-08-07T11:10:08.971Z,65.45
2022-08-07T11:14:42.618Z,75.35
2022-08-07T11:17:43.112Z,72.87
2022-08-07T11:21:14.761Z,69.72
2022-08-07T11:24:33.598Z,71.78
2022-08-07T11:28:02.513Z,72.30
2022-08-07T11:31:24.824Z,81.70
2022-08-07T11:34:42.534Z,75.70
2022-08-07T11:38:12.715Z,77.65
2022-08-07T11:41:29.673Z,75.62
2022-08-07T11:45:20.457Z,81.45
2022-08-07T11:49:51.043Z,71.68
2022-08-07T11:52:42.906Z,77.80
2022-08-07T11:56:27.006Z,80.35
2022-08-07T12:00:19.793Z,81.80
2022-08-07T12:03:41.538Z,75.75
2022-08-07T12:07:17.274Z,75.90
2022-08-07T12:10:35.390Z,84.20
2022-08-07T12:13:47.765Z,84.20
2022-08-07T12:17:04.289Z,82.97
2022-08-07T12:20:29.691Z,76.57
2022-08-07T12:24:07.317Z,83.43
2022-08-07T12:27:18.651Z,78.60
2022-08-07T12:30:34.838Z,84.00
2022-08-07T12:34:01.486Z,78.82
2022-08-07T12:37:08.819Z,77.22
2022-08-07T12:40:46.827Z,71.97
2022-08-07T12:47:30.736Z,78.20
2022-08-07T12:50:55.648Z,78.00
2022-08-07T12:54:36.459Z,80.18
2022-08-07T12:57:38.927Z,89.45
2022-08-07T13:01:19.659Z,77.05
2022-08-07T13:05:01.391Z,76.62
2022-08-07T13:08:33.999Z,81.70
2022-08-07T13:12:03.322Z,80.35
2022-08-07T13:15:29.772Z,79.37
2022-08-07T13:19:02.750Z,77.80
2022-08-07T13:22:19.864Z,73.60
2022-08-07T13:25:39.466Z,81.18
2022-08-07T13:29:01.307Z,73.72
2022-08-07T13:32:31.832Z,79.78
2022-08-07T13:36:01.070Z,79.47
2022-08-07T13:40:34.232Z,77.45
2022-08-07T13:43:04.838Z,87.10
2022-08-07T13:46:24.802Z,77.90
2022-08-07T13:50:34.785Z,84.60
2022-08-07T13:53:02.934Z,75.30
2022-08-07T13:56:06.411Z,73.87
2022-08-07T13:59:21.535Z,87.22
2022-08-07T14:02:33.328Z,81.55
2022-08-07T14:05:38.334Z,89.60
2022-08-07T14:08:48.724Z,91.18
2022-08-07T14:12:07.376Z,90.65
2022-08-07T14:15:35.903Z,86.72
2022-08-07T14:18:44.926Z,85.50
2022-08-07T14:22:04.266Z,83.75
2022-08-07T14:25:18.242Z,79.47
2022-08-07T14:28:33.226Z,96.22
2022-08-07T14:31:56.642Z,89.15
2022-08-07T14:35:03.905Z,86.70
2022-08-07T14:38:09.260Z,88.57
2022-08-07T14:42:22.383Z,78.65
2022-08-07T14:45:21.724Z,83.82
2022-08-07T14:48:33.220Z,81.05
2022-08-07T14:52:05.143Z,88.18
2022-08-07T14:55:02.833Z,88.53
2022-08-07T14:58:07.281Z,89.85
2022-08-07T15:01:42.262Z,82.95
2022-08-07T15:04:53.288Z,80.47
2022-08-07T15:07:58.509Z,79.87
2022-08-07T15:11:10.151Z,83.20
2022-08-07T15:14:25.413Z,79.60
2022-08-07T15:17:54.668Z,84.62
2022-08-07T15:21:04.013Z,79.53
2022-08-07T15:25:13.905Z,82.00
2022-08-07T15:31:10.704Z,76.32
2022-08-07T15:34:17.152Z,79.37
2022-08-07T15:37:29.164Z,87.03
2022-08-07T15:44:20.894Z,79.35
2022-08-07T15:48:00.229Z,81.95
2022-08-07T15:54:25.715Z,80.03
2022-08-07T15:57:39.834Z,80.03
2022-08-07T16:00:51.867Z,78.85
2022-08-07T16:04:03.152Z,76.70
2022-08-07T16:08:29.113Z,73.80
2022-08-07T16:10:47.151Z,74.53
2022-08-07T16:14:05.395Z,74.70
2022-08-07T16:18:02.028Z,77.18
2022-08-07T16:21:53.735Z,78.05
2022-08-07T16:24:33.969Z,74.22
2022-08-07T16:29:18.917Z,75.03
2022-08-07T16:31:57.353Z,68.18
2022-08-07T16:35:51.841Z,70.30
2022-08-07T16:39:20.853Z,72.97
2022-08-07T16:43:07.561Z,71.62
2022-08-07T16:50:38.897Z,71.82
2022-08-07T16:54:06.403Z,70.93
2022-08-07T16:58:00.872Z,74.62
2022-08-07T17:01:23.970Z,70.97
2022-08-07T17:05:05.577Z,71.68
2022-08-07T17:08:09.047Z,77.05
2022-08-07T17:12:04.325Z,72.40
2022-08-07T17:15:03.139Z,67.95
2022-08-07T17:18:36.215Z,75.93
2022-08-07T17:21:51.378Z,75.95
2022-08-07T17:25:08.235Z,78.87
2022-08-07T17:28:25.275Z,78.53
2022-08-07T17:31:33.959Z,76.35
2022-08-07T17:35:40.630Z,77.28
2022-08-07T17:38:33.915Z,74.43
2022-08-07T17:42:36.314Z,75.35
2022-08-07T17:46:22.775Z,67.00
2022-08-07T17:50:01.030Z,71.75
2022-08-07T17:53:52.588Z,74.12
2022-08-07T17:56:36.136Z,70.85
2022-08-07T17:59:58.643Z,73.80
2022-08-07T18:03:09.559Z,77.97
2022-08-07T18:06:16.745Z,72.95
2022-08-07T18:10:06.596Z,71.68
2022-08-07T18:13:40.681Z,72.65
2022-08-07T18:16:58.264Z,72.28
2022-08-07T18:21:07.143Z,83.35
2022-08-07T18:24:07.648Z,67.68
2022-08-07T18:27:17.217Z,73.45
2022-08-07T18:30:31.254Z,68.57
2022-08-07T18:34:34.838Z,78.68
2022-08-07T18:38:57.675Z,75.62
2022-08-07T18:41:44.885Z,78.25
2022-08-07T18:45:43.219Z,76.45
2022-08-07T18:50:32.509Z,74.93
2022-08-07T18:52:54.304Z,72.72
2022-08-07T18:56:37.692Z,69.75
2022-08-07T19:00:04.371Z,66.78
2022-08-07T19:03:49.453Z,71.20
2022-08-07T19:07:01.886Z,80.53
2022-08-07T19:10:21.898Z,78.35
2022-08-07T19:13:50.111Z,69.28
2022-08-07T19:17:07.092Z,75.47
2022-08-07T19:20:29.097Z,68.72
2022-08-07T19:23:58.811Z,68.72
2022-08-07T19:28:57.981Z,70.70
2022-08-07T19:31:05.544Z,70.15
2022-08-07T19:34:02.998Z,69.72
2022-08-07T19:37:17.036Z,72.00
2022-08-07T19:40:30.933Z,73.22
2022-08-07T19:43:48.592Z,67.70
2022-08-07T19:47:11.582Z,73.80
2022-08-07T19:50:41.142Z,73.00
2022-08-07T19:54:34.344Z,77.53
2022-08-07T19:58:02.756Z,74.93
2022-08-07T20:00:55.425Z,69.17
2022-08-07T20:04:01.437Z,74.32
2022-08-07T20:07:09.078Z,73.05
2022-08-07T20:10:35.846Z,77.82
2022-08-07T20:13:53.885Z,78.57
2022-08-07T20:16:59.331Z,70.55
2022-08-07T20:20:07.308Z,65.68
2022-08-07T20:23:32.938Z,71.22
2022-08-07T20:26:44.966Z,68.37
2022-08-07T20:29:59.226Z,78.80
2022-08-07T20:33:36.271Z,76.20
2022-08-07T20:36:33.810Z,74.93
2022-08-07T20:40:03.600Z,75.95
2022-08-07T20:43:09.713Z,68.20
2022-08-07T20:46:31.126Z,72.57
2022-08-07T20:50:00.834Z,67.72
2022-08-07T20:53:05.791Z,67.57
2022-08-07T20:56:10.552Z,76.20
2022-08-07T21:00:04.218Z,75.40
2022-08-07T21:02:58.610Z,69.40
2022-08-07T21:06:21.765Z,67.68
2022-08-07T21:09:35.580Z,69.10
2022-08-07T21:12:58.122Z,71.37
2022-08-07T21:16:04.300Z,75.82
2022-08-07T21:19:13.956Z,69.82
2022-08-07T21:22:19.087Z,70.50
2022-08-07T21:25:43.979Z,66.25
2022-08-07T21:29:15.916Z,68.47
2022-08-07T21:36:05.630Z,67.72
2022-08-07T21:39:48.176Z,85.53
2022-08-07T21:43:04.530Z,71.68
2022-08-07T21:46:24.508Z,78.72
2022-08-07T21:50:02.694Z,71.18
2022-08-07T21:53:17.145Z,66.70
2022-08-07T21:56:49.675Z,68.43
2022-08-07T22:00:05.188Z,76.43
2022-08-07T22:03:16.727Z,76.20
2022-08-07T22:06:45.278Z,73.18
2022-08-07T22:09:57.786Z,68.03
2022-08-07T22:13:09.227Z,68.35
2022-08-07T22:16:44.520Z,75.57
2022-08-07T22:20:02.794Z,75.30
2022-08-07T22:23:30.558Z,74.32
2022-08-07T22:26:46.866Z,79.12
2022-08-07T22:29:56.673Z,66.43
2022-08-07T22:33:01.690Z,77.97
2022-08-07T22:36:32.869Z,74.60
2022-08-07T22:39:52.448Z,71.72
2022-08-07T22:43:07.571Z,68.90
2022-08-07T22:47:01.929Z,69.25
2022-08-07T22:50:09.021Z,70.12
2022-08-07T22:54:07.736Z,70.37
2022-08-07T22:57:33.007Z,69.15
2022-08-07T23:00:48.747Z,67.75
2022-08-07T23:04:11.810Z,67.53
2022-08-07T23:07:53.867Z,68.18
2022-08-07T23:11:18.185Z,72.12
2022-08-07T23:15:08.027Z,65.12
2022-08-07T23:18:32.122Z,71.93
2022-08-07T23:21:56.415Z,72.78
2022-08-07T23:25:34.473Z,66.75
2022-08-07T23:29:42.793Z,75.25
2022-08-07T23:34:23.081Z,64.05
2022-08-07T23:36:35.847Z,73.12
2022-08-07T23:40:07.447Z,68.85
2022-08-07T23:43:38.014Z,72.62
2022-08-07T23:47:08.710Z,69.80
2022-08-07T23:50:37.496Z,72.95
2022-08-07T23:54:11.673Z,72.68
2022-08-07T23:57:44.710Z,69.68
